createdAt,value
2023-03-02T00:00:02.462Z,0.78
2023-03-02T00:01:02.498Z,0.81
2023-03-02T00:02:02.487Z,0.81
2023-03-02T00:03:02.623Z,0.77
2023-03-02T00:04:02.612Z,0.73
2023-03-02T00:05:02.557Z,0.73
2023-03-02T00:06:02.600Z,0.74
2023-03-02T00:07:02.597Z,0.77
2023-03-02T00:08:02.621Z,0.77
2023-03-02T00:09:02.640Z,0.77
2023-03-02T00:10:02.643Z,0.76
2023-03-02T00:11:02.682Z,0.78
2023-03-02T00:12:02.671Z,0.76
2023-03-02T00:13:02.697Z,0.70
2023-03-02T00:14:02.705Z,0.70
2023-03-02T00:15:02.729Z,0.68
2023-03-02T00:16:02.833Z,0.70
2023-03-02T00:17:02.824Z,0.69
2023-03-02T00:18:02.768Z,0.69
2023-03-02T00:19:02.789Z,0.70
2023-03-02T00:20:02.805Z,0.70
2023-03-02T00:21:02.842Z,0.74
2023-03-02T00:22:02.835Z,0.74
2023-03-02T00:23:02.862Z,0.73
2023-03-02T00:24:02.886Z,0.74
2023-03-02T00:25:02.892Z,0.77
2023-03-02T00:26:02.927Z,0.76
2023-03-02T00:27:02.934Z,0.74
2023-03-02T00:28:02.945Z,0.76
2023-03-02T00:29:02.964Z,0.76
2023-03-02T00:30:02.985Z,0.77
2023-03-02T00:31:03.035Z,0.80
2023-03-02T00:32:03.104Z,0.80
2023-03-02T00:33:03.030Z,0.81
2023-03-02T00:34:03.045Z,0.78
2023-03-02T00:35:03.071Z,0.77
2023-03-02T00:36:03.166Z,0.78
2023-03-02T00:37:03.109Z,0.78
2023-03-02T00:38:03.110Z,0.77
2023-03-02T00:39:03.135Z,0.73
2023-03-02T00:40:03.154Z,0.69
2023-03-02T00:41:03.198Z,0.65
2023-03-02T00:42:03.186Z,0.63
2023-03-02T00:43:03.212Z,0.69
2023-03-02T00:44:03.221Z,0.73
2023-03-02T00:45:03.247Z,0.70
2023-03-02T00:46:03.279Z,0.69
2023-03-02T00:47:03.383Z,0.69
2023-03-02T00:48:03.286Z,0.70
2023-03-02T00:49:03.318Z,0.70
2023-03-02T00:50:03.319Z,0.69
2023-03-02T00:51:03.367Z,0.69
2023-03-02T00:52:03.351Z,0.73
2023-03-02T00:53:03.370Z,0.74
2023-03-02T00:54:03.394Z,0.73
2023-03-02T00:55:03.416Z,0.68
2023-03-02T00:56:03.445Z,0.68
2023-03-02T00:57:03.445Z,0.65
2023-03-02T00:58:03.469Z,0.68
2023-03-02T00:59:03.479Z,0.73
2023-03-02T01:00:03.516Z,0.74
2023-03-02T01:01:03.528Z,0.70
2023-03-02T01:02:03.553Z,0.68
2023-03-02T01:03:03.574Z,0.66
2023-03-02T01:04:03.564Z,0.65
2023-03-02T01:05:03.629Z,0.63
2023-03-02T01:06:03.596Z,0.63
2023-03-02T01:07:03.628Z,0.63
2023-03-02T01:08:03.634Z,0.63
2023-03-02T01:09:03.655Z,0.63
2023-03-02T01:10:03.722Z,0.65
2023-03-02T01:11:03.700Z,0.60
2023-03-02T01:12:03.710Z,0.59
2023-03-02T01:13:03.740Z,0.59
2023-03-02T01:14:03.767Z,0.60
2023-03-02T01:15:03.811Z,0.60
2023-03-02T01:16:03.881Z,0.59
2023-03-02T01:17:03.808Z,0.56
2023-03-02T01:18:03.834Z,0.55
2023-03-02T01:19:03.847Z,0.58
2023-03-02T01:20:03.912Z,0.56
2023-03-02T01:21:03.931Z,0.52
2023-03-02T01:22:03.902Z,0.50
2023-03-02T01:23:03.919Z,0.52
2023-03-02T01:24:03.944Z,0.50
2023-03-02T01:25:04.020Z,0.50
2023-03-02T01:26:03.982Z,0.52
2023-03-02T01:27:03.993Z,0.55
2023-03-02T01:28:04.022Z,0.58
2023-03-02T01:29:04.026Z,0.55
2023-03-02T01:30:04.080Z,0.49
2023-03-02T01:31:04.095Z,0.47
2023-03-02T01:32:04.163Z,0.47
2023-03-02T01:33:04.111Z,0.47
2023-03-02T01:34:04.122Z,0.44
2023-03-02T01:35:04.158Z,0.47
2023-03-02T01:36:04.220Z,0.47
2023-03-02T01:37:04.173Z,0.52
2023-03-02T01:38:04.220Z,0.56
2023-03-02T01:39:04.200Z,0.59
2023-03-02T01:40:04.268Z,0.56
2023-03-02T01:41:04.242Z,0.52
2023-03-02T01:42:04.262Z,0.50
2023-03-02T01:43:04.270Z,0.47
2023-03-02T01:44:04.296Z,0.47
2023-03-02T01:45:04.321Z,0.47
2023-03-02T01:46:04.456Z,0.47
2023-03-02T01:47:04.342Z,0.46
2023-03-02T01:48:04.362Z,0.43
2023-03-02T01:49:04.392Z,0.47
2023-03-02T01:50:04.436Z,0.47
2023-03-02T01:51:04.420Z,0.46
2023-03-02T01:52:04.442Z,0.47
2023-03-02T01:53:05.410Z,0.47
2023-03-02T01:54:04.471Z,0.47
2023-03-02T01:55:04.508Z,0.44
2023-03-02T01:56:04.503Z,0.41
2023-03-02T01:57:04.531Z,0.40
2023-03-02T01:58:04.543Z,0.40
2023-03-02T01:59:04.546Z,0.37
2023-03-02T02:00:04.594Z,0.37
2023-03-02T02:01:04.670Z,0.36
2023-03-02T02:02:04.602Z,0.37
2023-03-02T02:03:04.621Z,0.37
2023-03-02T02:04:04.696Z,0.36
2023-03-02T02:05:04.671Z,0.34
2023-03-02T02:06:04.683Z,0.34
2023-03-02T02:07:04.693Z,0.34
2023-03-02T02:08:04.721Z,0.36
2023-03-02T02:09:04.728Z,0.40
2023-03-02T02:10:04.768Z,0.41
2023-03-02T02:11:04.774Z,0.43
2023-03-02T02:12:04.789Z,0.43
2023-03-02T02:13:04.827Z,0.39
2023-03-02T02:14:04.835Z,0.37
2023-03-02T02:15:04.862Z,0.36
2023-03-02T02:16:04.940Z,0.36
2023-03-02T02:17:04.897Z,0.36
2023-03-02T02:18:04.910Z,0.36
2023-03-02T02:19:04.926Z,0.32
2023-03-02T02:20:04.967Z,0.29
2023-03-02T02:21:04.964Z,0.31
2023-03-02T02:22:04.990Z,0.32
2023-03-02T02:23:05.001Z,0.32
2023-03-02T02:24:05.023Z,0.34
2023-03-02T02:25:05.052Z,0.29
2023-03-02T02:26:05.051Z,0.28
2023-03-02T02:27:05.066Z,0.29
2023-03-02T02:28:05.091Z,0.31
2023-03-02T02:29:05.102Z,0.28
2023-03-02T02:30:05.145Z,0.29
2023-03-02T02:31:05.133Z,0.29
2023-03-02T02:32:05.358Z,0.28
2023-03-02T02:33:05.169Z,0.26
2023-03-02T02:34:05.194Z,0.25
2023-03-02T02:35:05.243Z,0.23
2023-03-02T02:36:05.248Z,0.22
2023-03-02T02:37:05.252Z,0.25
2023-03-02T02:38:05.268Z,0.26
2023-03-02T02:39:05.282Z,0.23
2023-03-02T02:40:05.326Z,0.22
2023-03-02T02:41:05.318Z,0.23
2023-03-02T02:42:05.348Z,0.22
2023-03-02T02:43:05.379Z,0.19
2023-03-02T02:44:05.383Z,0.19
2023-03-02T02:45:05.412Z,0.19
2023-03-02T02:46:05.560Z,0.22
2023-03-02T02:47:05.433Z,0.23
2023-03-02T02:48:05.461Z,0.23
2023-03-02T02:49:05.479Z,0.21
2023-03-02T02:50:05.520Z,0.21
2023-03-02T02:51:05.508Z,0.21
2023-03-02T02:52:05.534Z,0.18
2023-03-02T02:53:05.548Z,0.19
2023-03-02T02:54:05.582Z,0.12
2023-03-02T02:55:05.605Z,0.12
2023-03-02T02:56:05.612Z,0.22
2023-03-02T02:57:05.626Z,0.23
2023-03-02T02:58:05.654Z,0.22
2023-03-02T02:59:05.665Z,0.19
2023-03-02T03:00:05.705Z,0.18
2023-03-02T03:01:05.768Z,0.19
2023-03-02T03:02:05.721Z,0.19
2023-03-02T03:03:05.730Z,0.18
2023-03-02T03:04:05.779Z,0.15
2023-03-02T03:05:05.798Z,0.16
2023-03-02T03:06:05.792Z,0.16
2023-03-02T03:07:05.804Z,0.12
2023-03-02T03:08:05.829Z,0.10
2023-03-02T03:09:05.905Z,0.10
2023-03-02T03:10:05.880Z,0.12
2023-03-02T03:11:05.873Z,0.12
2023-03-02T03:12:05.898Z,0.10
2023-03-02T03:13:05.911Z,0.07
2023-03-02T03:14:05.932Z,0.05
2023-03-02T03:15:05.966Z,0.05
2023-03-02T03:16:05.969Z,0.07
2023-03-02T03:17:06.023Z,0.08
2023-03-02T03:18:06.008Z,0.08
2023-03-02T03:19:06.016Z,0.08
2023-03-02T03:20:06.140Z,0.08
2023-03-02T03:21:06.052Z,0.05
2023-03-02T03:22:06.075Z,0.03
2023-03-02T03:23:06.088Z,0.01
2023-03-02T03:24:06.105Z,-0.02
2023-03-02T03:25:06.140Z,-0.03
2023-03-02T03:26:06.166Z,-0.02
2023-03-02T03:27:06.155Z,0.00
2023-03-02T03:28:06.171Z,0.00
2023-03-02T03:29:06.194Z,-0.06
2023-03-02T03:30:06.238Z,-0.10
2023-03-02T03:31:06.266Z,-0.03
2023-03-02T03:32:06.291Z,-0.03
2023-03-02T03:33:06.248Z,-0.02
2023-03-02T03:34:06.272Z,-0.03
2023-03-02T03:35:06.293Z,-0.03
2023-03-02T03:36:06.298Z,-0.07
2023-03-02T03:37:06.314Z,-0.08
2023-03-02T03:38:06.340Z,-0.08
2023-03-02T03:39:06.356Z,-0.11
2023-03-02T03:40:06.388Z,-0.11
2023-03-02T03:41:06.383Z,-0.11
2023-03-02T03:42:06.424Z,-0.13
2023-03-02T03:43:06.425Z,-0.11
2023-03-02T03:44:06.441Z,-0.13
2023-03-02T03:45:06.471Z,-0.11
2023-03-02T03:46:06.515Z,-0.14
2023-03-02T03:47:06.488Z,-0.14
2023-03-02T03:48:06.512Z,-0.11
2023-03-02T03:49:06.529Z,-0.07
2023-03-02T03:50:06.565Z,-0.07
2023-03-02T03:51:06.554Z,-0.07
2023-03-02T03:52:06.568Z,-0.08
2023-03-02T03:53:06.583Z,-0.07
2023-03-02T03:54:06.606Z,-0.10
2023-03-02T03:55:06.628Z,-0.11
2023-03-02T03:56:06.632Z,-0.13
2023-03-02T03:57:06.634Z,-0.13
2023-03-02T03:58:06.658Z,-0.15
2023-03-02T03:59:06.671Z,-0.17
2023-03-02T04:00:06.714Z,-0.17
2023-03-02T04:01:06.740Z,-0.18
2023-03-02T04:02:06.710Z,-0.18
2023-03-02T04:03:06.723Z,-0.17
2023-03-02T04:04:06.743Z,-0.18
2023-03-02T04:05:06.782Z,-0.18
2023-03-02T04:06:06.794Z,-0.18
2023-03-02T04:07:06.789Z,-0.17
2023-03-02T04:08:06.811Z,-0.18
2023-03-02T04:09:06.819Z,-0.18
2023-03-02T04:10:06.856Z,-0.18
2023-03-02T04:11:06.853Z,-0.18
2023-03-02T04:12:06.872Z,-0.17
2023-03-02T04:13:06.875Z,-0.17
2023-03-02T04:14:06.897Z,-0.20
2023-03-02T04:15:06.936Z,-0.14
2023-03-02T04:16:06.959Z,-0.14
2023-03-02T04:17:06.944Z,-0.18
2023-03-02T04:18:06.963Z,-0.15
2023-03-02T04:19:06.976Z,-0.18
2023-03-02T04:20:07.026Z,-0.18
2023-03-02T04:21:07.058Z,-0.17
2023-03-02T04:22:07.030Z,-0.20
2023-03-02T04:23:07.047Z,-0.20
2023-03-02T04:24:07.069Z,-0.21
2023-03-02T04:25:07.093Z,-0.21
2023-03-02T04:26:07.178Z,-0.23
2023-03-02T04:27:07.110Z,-0.25
2023-03-02T04:28:07.133Z,-0.26
2023-03-02T04:29:07.148Z,-0.26
2023-03-02T04:30:07.190Z,-0.23
2023-03-02T04:31:07.326Z,-0.18
2023-03-02T04:32:07.275Z,-0.23
2023-03-02T04:33:07.234Z,-0.21
2023-03-02T04:34:07.239Z,-0.20
2023-03-02T04:35:07.268Z,-0.23
2023-03-02T04:36:07.268Z,-0.23
2023-03-02T04:37:07.279Z,-0.25
2023-03-02T04:38:07.308Z,-0.26
2023-03-02T04:39:07.327Z,-0.26
2023-03-02T04:40:07.346Z,-0.25
2023-03-02T04:41:07.336Z,-0.25
2023-03-02T04:42:07.367Z,-0.26
2023-03-02T04:43:07.368Z,-0.29
2023-03-02T04:44:07.392Z,-0.28
2023-03-02T04:45:07.452Z,-0.29
2023-03-02T04:46:07.486Z,-0.29
2023-03-02T04:47:07.432Z,-0.29
2023-03-02T04:48:07.455Z,-0.31
2023-03-02T04:49:07.468Z,-0.29
2023-03-02T04:50:07.498Z,-0.31
2023-03-02T04:51:07.485Z,-0.32
2023-03-02T04:52:07.509Z,-0.32
2023-03-02T04:53:07.517Z,-0.31
2023-03-02T04:54:07.542Z,-0.32
2023-03-02T04:55:07.576Z,-0.32
2023-03-02T04:56:07.567Z,-0.32
2023-03-02T04:57:07.585Z,-0.36
2023-03-02T04:58:07.606Z,-0.38
2023-03-02T04:59:07.616Z,-0.39
2023-03-02T05:00:07.659Z,-0.39
2023-03-02T05:01:07.649Z,-0.38
2023-03-02T05:02:07.699Z,-0.39
2023-03-02T05:03:07.688Z,-0.41
2023-03-02T05:04:07.726Z,-0.41
2023-03-02T05:05:07.727Z,-0.43
2023-03-02T05:06:07.724Z,-0.44
2023-03-02T05:07:07.740Z,-0.46
2023-03-02T05:08:07.749Z,-0.49
2023-03-02T05:09:07.756Z,-0.49
2023-03-02T05:10:07.790Z,-0.49
2023-03-02T05:11:07.810Z,-0.50
2023-03-02T05:12:07.804Z,-0.53
2023-03-02T05:13:07.823Z,-0.53
2023-03-02T05:14:07.837Z,-0.52
2023-03-02T05:15:07.870Z,-0.52
2023-03-02T05:16:07.916Z,-0.52
2023-03-02T05:17:07.882Z,-0.53
2023-03-02T05:18:07.899Z,-0.57
2023-03-02T05:19:07.930Z,-0.56
2023-03-02T05:20:07.951Z,-0.57
2023-03-02T05:21:07.952Z,-0.57
2023-03-02T05:22:07.968Z,-0.57
2023-03-02T05:23:13.983Z,-0.61
2023-03-02T05:24:08.000Z,-0.61
2023-03-02T05:25:08.024Z,-0.59
2023-03-02T05:26:08.025Z,-0.59
2023-03-02T05:27:08.040Z,-0.61
2023-03-02T05:28:08.058Z,-0.62
2023-03-02T05:29:08.071Z,-0.62
2023-03-02T05:30:08.103Z,-0.64
2023-03-02T05:31:08.168Z,-0.62
2023-03-02T05:32:08.230Z,-0.62
2023-03-02T05:33:08.137Z,-0.61
2023-03-02T05:34:08.152Z,-0.59
2023-03-02T05:35:08.190Z,-0.59
2023-03-02T05:36:08.178Z,-0.62
2023-03-02T05:37:08.200Z,-0.62
2023-03-02T05:38:08.210Z,-0.62
2023-03-02T05:39:08.249Z,-0.61
2023-03-02T05:40:08.254Z,-0.61
2023-03-02T05:41:08.256Z,-0.64
2023-03-02T05:42:08.300Z,-0.64
2023-03-02T05:43:08.297Z,-0.65
2023-03-02T05:44:08.313Z,-0.67
2023-03-02T05:45:08.357Z,-0.65
2023-03-02T05:46:08.342Z,-0.67
2023-03-02T05:47:08.501Z,-0.67
2023-03-02T05:48:08.377Z,-0.65
2023-03-02T05:49:08.397Z,-0.62
2023-03-02T05:50:08.427Z,-0.62
2023-03-02T05:51:08.434Z,-0.64
2023-03-02T05:52:08.436Z,-0.64
2023-03-02T05:53:08.460Z,-0.67
2023-03-02T05:54:08.469Z,-0.67
2023-03-02T05:55:08.512Z,-0.67
2023-03-02T05:56:08.499Z,-0.68
2023-03-02T05:57:08.518Z,-0.67
2023-03-02T05:58:08.531Z,-0.65
2023-03-02T05:59:08.564Z,-0.67
2023-03-02T06:00:08.592Z,-0.65
2023-03-02T06:01:08.577Z,-0.65
2023-03-02T06:02:08.614Z,-0.65
2023-03-02T06:03:08.652Z,-0.59
2023-03-02T06:04:08.613Z,-0.61
2023-03-02T06:05:08.657Z,-0.57
2023-03-02T06:06:08.644Z,-0.59
2023-03-02T06:07:08.660Z,-0.61
2023-03-02T06:08:08.675Z,-0.57
2023-03-02T06:09:08.696Z,-0.54
2023-03-02T06:10:08.735Z,-0.53
2023-03-02T06:11:08.721Z,-0.52
2023-03-02T06:12:08.737Z,-0.52
2023-03-02T06:13:08.746Z,-0.50
2023-03-02T06:14:08.763Z,-0.49
2023-03-02T06:15:08.812Z,-0.47
2023-03-02T06:16:08.903Z,-0.43
2023-03-02T06:17:08.813Z,-0.41
2023-03-02T06:18:08.819Z,-0.41
2023-03-02T06:19:08.840Z,-0.43
2023-03-02T06:20:08.860Z,-0.41
2023-03-02T06:21:08.869Z,-0.39
2023-03-02T06:22:08.873Z,-0.38
2023-03-02T06:23:08.894Z,-0.39
2023-03-02T06:24:08.910Z,-0.38
2023-03-02T06:25:08.957Z,-0.38
2023-03-02T06:26:08.946Z,-0.36
2023-03-02T06:27:08.962Z,-0.36
2023-03-02T06:28:08.971Z,-0.38
2023-03-02T06:29:08.990Z,-0.35
2023-03-02T06:30:09.016Z,-0.35
2023-03-02T06:31:09.036Z,-0.34
2023-03-02T06:32:09.199Z,-0.31
2023-03-02T06:33:09.053Z,-0.31
2023-03-02T06:34:09.065Z,-0.31
2023-03-02T06:35:09.154Z,-0.29
2023-03-02T06:36:09.237Z,-0.28
2023-03-02T06:37:09.117Z,-0.26
2023-03-02T06:38:09.122Z,-0.26
2023-03-02T06:39:09.163Z,-0.21
2023-03-02T06:40:09.179Z,-0.17
2023-03-02T06:41:09.175Z,-0.17
2023-03-02T06:42:09.180Z,-0.17
2023-03-02T06:43:09.203Z,-0.15
2023-03-02T06:44:09.220Z,-0.13
2023-03-02T06:45:09.254Z,-0.13
2023-03-02T06:46:09.308Z,-0.11
2023-03-02T06:47:09.263Z,-0.07
2023-03-02T06:48:09.275Z,-0.06
2023-03-02T06:49:09.290Z,-0.03
2023-03-02T06:50:09.322Z,-0.02
2023-03-02T06:51:09.321Z,0.01
2023-03-02T06:52:09.334Z,0.04
2023-03-02T06:53:09.360Z,0.04
2023-03-02T06:54:09.370Z,0.05
2023-03-02T06:55:09.442Z,0.08
2023-03-02T06:56:09.408Z,0.10
2023-03-02T06:57:09.427Z,0.10
2023-03-02T06:58:09.440Z,0.12
2023-03-02T06:59:09.466Z,0.15
2023-03-02T07:00:09.499Z,0.16
2023-03-02T07:01:09.628Z,0.18
2023-03-02T07:02:09.496Z,0.21
2023-03-02T07:03:09.520Z,0.21
2023-03-02T07:04:09.528Z,0.23
2023-03-02T07:05:09.584Z,0.26
2023-03-02T07:06:09.569Z,0.26
2023-03-02T07:07:09.600Z,0.29
2023-03-02T07:08:09.604Z,0.31
2023-03-02T07:09:09.626Z,0.36
2023-03-02T07:10:09.652Z,0.37
2023-03-02T07:11:09.663Z,0.40
2023-03-02T07:12:09.671Z,0.43
2023-03-02T07:13:09.703Z,0.46
2023-03-02T07:14:09.711Z,0.50
2023-03-02T07:15:09.969Z,0.55
2023-03-02T07:16:09.748Z,0.60
2023-03-02T07:17:09.772Z,0.60
2023-03-02T07:18:09.788Z,0.65
2023-03-02T07:19:09.800Z,0.68
2023-03-02T07:20:09.876Z,0.69
2023-03-02T07:21:09.839Z,0.73
2023-03-02T07:22:09.843Z,0.74
2023-03-02T07:23:09.868Z,0.76
2023-03-02T07:24:09.883Z,0.77
2023-03-02T07:25:09.925Z,0.80
2023-03-02T07:26:09.925Z,0.83
2023-03-02T07:27:09.954Z,0.86
2023-03-02T07:28:09.967Z,0.88
2023-03-02T07:29:09.986Z,0.92
2023-03-02T07:30:10.034Z,0.95
2023-03-02T07:31:10.196Z,0.98
2023-03-02T07:32:12.480Z,0.99
2023-03-02T07:33:10.065Z,1.02
2023-03-02T07:34:10.083Z,1.04
2023-03-02T07:35:10.126Z,1.05
2023-03-02T07:36:10.112Z,1.08
2023-03-02T07:37:10.123Z,1.12
2023-03-02T07:38:10.186Z,1.16
2023-03-02T07:39:10.174Z,1.19
2023-03-02T07:40:10.215Z,1.26
2023-03-02T07:41:10.234Z,1.32
2023-03-02T07:42:10.216Z,1.34
2023-03-02T07:43:10.242Z,1.35
2023-03-02T07:44:10.252Z,1.35
2023-03-02T07:45:10.275Z,1.38
2023-03-02T07:46:10.357Z,1.38
2023-03-02T07:47:10.303Z,1.45
2023-03-02T07:48:10.306Z,1.42
2023-03-02T07:49:10.338Z,1.40
2023-03-02T07:50:10.350Z,1.40
2023-03-02T07:51:10.362Z,1.41
2023-03-02T07:52:10.385Z,1.45
2023-03-02T07:53:10.400Z,1.45
2023-03-02T07:54:10.411Z,1.49
2023-03-02T07:55:10.459Z,1.50
2023-03-02T07:56:10.451Z,1.52
2023-03-02T07:57:10.475Z,1.56
2023-03-02T07:58:10.484Z,1.60
2023-03-02T07:59:10.499Z,1.58
2023-03-02T08:00:10.535Z,1.56
2023-03-02T08:01:10.543Z,1.59
2023-03-02T08:02:10.618Z,1.63
2023-03-02T08:03:10.762Z,1.66
2023-03-02T08:04:10.594Z,1.70
2023-03-02T08:05:10.625Z,1.74
2023-03-02T08:06:10.620Z,1.71
2023-03-02T08:07:10.649Z,1.73
2023-03-02T08:08:10.662Z,1.80
2023-03-02T08:09:10.680Z,1.87
2023-03-02T08:10:10.727Z,1.89
2023-03-02T08:11:10.708Z,1.94
2023-03-02T08:12:10.727Z,2.02
2023-03-02T08:13:10.740Z,2.04
2023-03-02T08:14:10.767Z,2.08
2023-03-02T08:15:10.802Z,2.06
2023-03-02T08:16:10.928Z,2.02
2023-03-02T08:17:10.820Z,2.02
2023-03-02T08:18:10.846Z,2.08
2023-03-02T08:19:10.866Z,2.08
2023-03-02T08:20:10.935Z,2.14
2023-03-02T08:21:10.902Z,2.17
2023-03-02T08:22:10.950Z,2.25
2023-03-02T08:23:10.956Z,2.29
2023-03-02T08:24:10.970Z,2.31
2023-03-02T08:25:11.006Z,2.33
2023-03-02T08:26:13.501Z,2.36
2023-03-02T08:27:11.025Z,2.38
2023-03-02T08:28:11.041Z,2.31
2023-03-02T08:29:11.052Z,2.32
2023-03-02T08:30:11.099Z,2.35
2023-03-02T08:31:11.143Z,2.44
2023-03-02T08:32:11.231Z,2.38
2023-03-02T08:33:11.128Z,2.39
2023-03-02T08:34:11.152Z,2.44
2023-03-02T08:35:11.182Z,2.50
2023-03-02T08:36:11.301Z,2.49
2023-03-02T08:37:11.192Z,2.56
2023-03-02T08:38:11.224Z,2.67
2023-03-02T08:39:11.259Z,2.74
2023-03-02T08:40:11.285Z,2.83
2023-03-02T08:41:11.284Z,2.87
2023-03-02T08:42:11.308Z,2.90
2023-03-02T08:43:11.320Z,2.87
2023-03-02T08:44:11.338Z,2.86
2023-03-02T08:45:11.364Z,2.86
2023-03-02T08:46:11.466Z,2.87
2023-03-02T08:47:11.389Z,2.85
2023-03-02T08:48:11.409Z,2.90
2023-03-02T08:49:11.419Z,2.92
2023-03-02T08:50:11.469Z,2.97
2023-03-02T08:51:11.465Z,3.08
2023-03-02T08:52:11.489Z,3.14
2023-03-02T08:53:11.497Z,3.18
2023-03-02T08:54:11.510Z,3.21
2023-03-02T08:55:11.580Z,3.26
2023-03-02T08:56:11.554Z,3.37
2023-03-02T08:57:11.559Z,3.34
2023-03-02T08:58:11.576Z,3.40
2023-03-02T08:59:11.593Z,3.37
2023-03-02T09:00:11.637Z,3.40
2023-03-02T09:01:11.686Z,3.40
2023-03-02T09:02:11.649Z,3.42
2023-03-02T09:03:11.667Z,3.59
2023-03-02T09:04:11.719Z,3.69
2023-03-02T09:05:11.714Z,3.70
2023-03-02T09:06:11.719Z,3.50
2023-03-02T09:07:11.733Z,3.51
2023-03-02T09:08:11.760Z,3.59
2023-03-02T09:09:11.770Z,3.70
2023-03-02T09:10:11.816Z,3.77
2023-03-02T09:11:11.811Z,3.83
2023-03-02T09:12:11.832Z,3.91
2023-03-02T09:13:11.852Z,4.01
2023-03-02T09:14:11.860Z,4.10
2023-03-02T09:15:12.033Z,4.16
2023-03-02T09:16:11.927Z,4.22
2023-03-02T09:17:11.905Z,4.26
2023-03-02T09:18:11.920Z,4.23
2023-03-02T09:19:11.929Z,4.31
2023-03-02T09:20:11.977Z,4.23
2023-03-02T09:21:11.977Z,4.20
2023-03-02T09:22:11.994Z,4.19
2023-03-02T09:23:12.001Z,4.14
2023-03-02T09:24:12.027Z,4.10
2023-03-02T09:25:12.066Z,4.20
2023-03-02T09:26:12.068Z,4.24
2023-03-02T09:27:12.097Z,4.30
2023-03-02T09:28:12.108Z,4.34
2023-03-02T09:29:12.163Z,4.44
2023-03-02T09:30:12.166Z,4.58
2023-03-02T09:31:12.155Z,4.53
2023-03-02T09:32:12.344Z,4.45
2023-03-02T09:33:12.293Z,4.23
2023-03-02T09:34:12.217Z,4.28
2023-03-02T09:35:12.255Z,4.41
2023-03-02T09:36:12.258Z,4.48
2023-03-02T09:37:12.281Z,4.50
2023-03-02T09:38:12.396Z,4.48
2023-03-02T09:39:12.430Z,4.40
2023-03-02T09:40:12.356Z,4.40
2023-03-02T09:41:12.339Z,4.42
2023-03-02T09:42:12.365Z,4.44
2023-03-02T09:43:12.376Z,4.38
2023-03-02T09:44:12.395Z,4.41
2023-03-02T09:45:12.423Z,4.52
2023-03-02T09:46:12.530Z,4.58
2023-03-02T09:47:12.438Z,4.58
2023-03-02T09:48:12.466Z,4.59
2023-03-02T09:49:12.456Z,4.60
2023-03-02T09:50:12.495Z,4.60
2023-03-02T09:51:12.484Z,4.60
2023-03-02T09:52:12.511Z,4.60
2023-03-02T09:53:12.522Z,4.62
2023-03-02T09:54:12.666Z,4.66
2023-03-02T09:55:12.570Z,4.70
2023-03-02T09:56:12.608Z,4.71
2023-03-02T09:57:12.591Z,4.70
2023-03-02T09:58:12.616Z,4.70
2023-03-02T09:59:12.649Z,4.70
2023-03-02T10:00:19.121Z,4.66
2023-03-02T10:01:14.364Z,4.62
2023-03-02T10:02:12.693Z,4.60
2023-03-02T10:03:17.335Z,4.60
2023-03-02T10:04:12.817Z,4.63
2023-03-02T10:05:12.756Z,4.60
2023-03-02T10:06:12.762Z,4.63
2023-03-02T10:07:12.778Z,4.67
2023-03-02T10:08:12.808Z,4.73
2023-03-02T10:09:12.822Z,4.78
2023-03-02T10:10:12.851Z,4.86
2023-03-02T10:11:12.871Z,4.86
2023-03-02T10:12:12.877Z,4.89
2023-03-02T10:13:12.896Z,4.90
2023-03-02T10:14:12.922Z,4.92
2023-03-02T10:15:12.965Z,4.94
2023-03-02T10:16:13.031Z,4.96
2023-03-02T10:17:12.960Z,4.96
2023-03-02T10:18:12.983Z,5.00
2023-03-02T10:19:12.995Z,5.02
2023-03-02T10:20:13.050Z,5.07
2023-03-02T10:21:13.028Z,5.11
2023-03-02T10:22:13.048Z,5.17
2023-03-02T10:23:13.064Z,5.23
2023-03-02T10:24:13.089Z,5.28
2023-03-02T10:25:13.118Z,5.32
2023-03-02T10:26:13.126Z,5.35
2023-03-02T10:27:13.171Z,5.43
2023-03-02T10:28:13.164Z,5.50
2023-03-02T10:29:13.230Z,5.57
2023-03-02T10:30:13.226Z,5.62
2023-03-02T10:31:13.228Z,5.62
2023-03-02T10:32:13.346Z,5.62
2023-03-02T10:33:13.249Z,5.62
2023-03-02T10:34:13.263Z,5.65
2023-03-02T10:35:13.311Z,5.69
2023-03-02T10:36:13.295Z,5.73
2023-03-02T10:37:13.387Z,5.72
2023-03-02T10:38:13.332Z,5.72
2023-03-02T10:39:13.355Z,5.73
2023-03-02T10:40:13.386Z,5.73
2023-03-02T10:41:13.382Z,5.71
2023-03-02T10:42:13.472Z,5.68
2023-03-02T10:43:13.418Z,5.71
2023-03-02T10:44:13.441Z,5.75
2023-03-02T10:45:13.462Z,5.75
2023-03-02T10:46:13.519Z,5.82
2023-03-02T10:47:13.478Z,5.86
2023-03-02T10:48:13.495Z,5.89
2023-03-02T10:49:13.630Z,5.80
2023-03-02T10:50:13.555Z,5.84
2023-03-02T10:51:13.562Z,5.84
2023-03-02T10:52:13.574Z,5.86
2023-03-02T10:53:13.585Z,5.90
2023-03-02T10:54:13.606Z,5.98
2023-03-02T10:55:13.631Z,6.07
2023-03-02T10:56:13.636Z,6.09
2023-03-02T10:57:13.646Z,6.09
2023-03-02T10:58:13.677Z,6.09
2023-03-02T10:59:13.691Z,6.16
2023-03-02T11:00:13.726Z,6.19
2023-03-02T11:01:13.767Z,6.27
2023-03-02T11:02:13.740Z,6.33
2023-03-02T11:03:13.751Z,6.35
2023-03-02T11:04:13.807Z,6.38
2023-03-02T11:05:13.819Z,6.41
2023-03-02T11:06:13.845Z,6.41
2023-03-02T11:07:13.830Z,6.45
2023-03-02T11:08:13.848Z,6.51
2023-03-02T11:09:13.874Z,6.57
2023-03-02T11:10:13.896Z,6.63
2023-03-02T11:11:13.904Z,6.66
2023-03-02T11:12:13.917Z,6.70
2023-03-02T11:13:13.942Z,6.64
2023-03-02T11:14:13.958Z,6.60
2023-03-02T11:15:13.991Z,6.67
2023-03-02T11:16:14.215Z,6.74
2023-03-02T11:17:14.002Z,6.99
2023-03-02T11:18:14.030Z,7.06
2023-03-02T11:19:14.031Z,7.14
2023-03-02T11:20:14.078Z,7.20
2023-03-02T11:21:14.070Z,7.21
2023-03-02T11:22:14.100Z,7.20
2023-03-02T11:23:20.603Z,7.13
2023-03-02T11:24:14.191Z,7.13
2023-03-02T11:25:14.149Z,6.99
2023-03-02T11:26:14.160Z,7.00
2023-03-02T11:27:14.176Z,7.00
2023-03-02T11:28:14.190Z,7.03
2023-03-02T11:29:14.194Z,7.11
2023-03-02T11:30:14.275Z,7.03
2023-03-02T11:31:14.262Z,7.13
2023-03-02T11:32:14.369Z,7.14
2023-03-02T11:33:14.293Z,7.21
2023-03-02T11:34:17.957Z,7.17
2023-03-02T11:35:14.334Z,7.15
2023-03-02T11:36:14.328Z,7.23
2023-03-02T11:37:14.340Z,7.31
2023-03-02T11:38:14.365Z,7.33
2023-03-02T11:39:14.391Z,7.38
2023-03-02T11:40:14.413Z,7.31
2023-03-02T11:41:14.403Z,7.35
2023-03-02T11:42:14.438Z,7.42
2023-03-02T11:43:14.440Z,7.48
2023-03-02T11:44:14.461Z,7.57
2023-03-02T11:45:15.395Z,7.63
2023-03-02T11:46:21.651Z,7.66
2023-03-02T11:47:14.617Z,7.63
2023-03-02T11:48:14.526Z,7.66
2023-03-02T11:49:14.542Z,7.69
2023-03-02T11:50:14.594Z,7.72
2023-03-02T11:51:14.590Z,7.75
2023-03-02T11:52:16.035Z,7.75
2023-03-02T11:53:14.666Z,7.79
2023-03-02T11:54:14.637Z,7.83
2023-03-02T11:55:14.660Z,7.83
2023-03-02T11:56:14.663Z,7.80
2023-03-02T11:57:14.668Z,7.77
2023-03-02T11:58:14.693Z,7.80
2023-03-02T11:59:14.699Z,7.77
2023-03-02T12:00:14.739Z,7.88
2023-03-02T12:01:14.729Z,7.93
2023-03-02T12:02:14.791Z,7.93
2023-03-02T12:03:14.793Z,7.97
2023-03-02T12:04:14.789Z,8.00
2023-03-02T12:05:14.897Z,8.05
2023-03-02T12:06:14.866Z,8.09
2023-03-02T12:07:14.841Z,8.12
2023-03-02T12:08:14.862Z,8.03
2023-03-02T12:09:14.973Z,8.03
2023-03-02T12:10:14.908Z,8.18
2023-03-02T12:11:14.901Z,8.31
2023-03-02T12:12:14.949Z,8.37
2023-03-02T12:13:14.931Z,8.44
2023-03-02T12:14:14.965Z,8.36
2023-03-02T12:15:15.014Z,8.41
2023-03-02T12:16:14.999Z,8.44
2023-03-02T12:17:16.557Z,8.37
2023-03-02T12:18:15.022Z,8.41
2023-03-02T12:19:15.048Z,8.33
2023-03-02T12:20:15.073Z,8.31
2023-03-02T12:21:15.076Z,8.34
2023-03-02T12:22:15.117Z,8.49
2023-03-02T12:23:15.117Z,8.53
2023-03-02T12:24:15.129Z,8.64
2023-03-02T12:25:15.165Z,8.69
2023-03-02T12:26:15.162Z,8.73
2023-03-02T12:27:15.180Z,8.79
2023-03-02T12:28:15.265Z,8.84
2023-03-02T12:29:15.299Z,8.87
2023-03-02T12:30:15.270Z,8.91
2023-03-02T12:31:15.298Z,8.92
2023-03-02T12:32:15.312Z,8.91
2023-03-02T12:33:15.318Z,8.84
2023-03-02T12:34:15.308Z,8.85
2023-03-02T12:35:15.329Z,8.87
2023-03-02T12:36:15.325Z,8.97
2023-03-02T12:37:15.354Z,8.99
2023-03-02T12:38:15.456Z,9.00
2023-03-02T12:39:15.386Z,9.08
2023-03-02T12:40:15.414Z,9.08
2023-03-02T12:41:15.428Z,9.13
2023-03-02T12:42:15.454Z,9.23
2023-03-02T12:43:15.476Z,9.13
2023-03-02T12:44:15.525Z,9.10
2023-03-02T12:45:15.573Z,8.99
2023-03-02T12:46:15.538Z,9.04
2023-03-02T12:47:15.979Z,9.13
2023-03-02T12:48:15.535Z,9.10
2023-03-02T12:49:15.565Z,9.02
2023-03-02T12:50:15.584Z,9.03
2023-03-02T12:51:15.675Z,9.14
2023-03-02T12:52:15.715Z,9.25
2023-03-02T12:53:15.613Z,9.34
2023-03-02T12:54:15.634Z,9.37
2023-03-02T12:55:15.670Z,9.36
2023-03-02T12:56:15.701Z,9.37
2023-03-02T12:57:15.704Z,9.47
2023-03-02T12:58:15.705Z,9.54
2023-03-02T12:59:15.724Z,9.55
2023-03-02T13:00:15.759Z,9.46
2023-03-02T13:01:15.794Z,9.47
2023-03-02T13:02:15.872Z,9.41
2023-03-02T13:03:15.811Z,9.28
2023-03-02T13:04:15.921Z,9.34
2023-03-02T13:05:15.849Z,9.36
2023-03-02T13:06:15.843Z,9.34
2023-03-02T13:07:15.863Z,9.36
2023-03-02T13:08:16.073Z,9.40
2023-03-02T13:09:15.894Z,9.46
2023-03-02T13:10:15.980Z,9.48
2023-03-02T13:11:15.926Z,9.51